sensor_id;sensor_type;location;lat;lon;timestamp;P1;durP1;ratioP1;P2;durP2;ratioP2
20073;SDS011;10197;54.282;10.078;2022-10-16T00:02:25;18.23;;;11.27;;
20073;SDS011;10197;54.282;10.078;2022-10-16T00:04:52;15.55;;;13.30;;
20073;SDS011;10197;54.282;10.078;2022-10-16T00:07:21;18.42;;;11.93;;
20073;SDS011;10197;54.282;10.078;2022-10-16T00:09:48;17.73;;;12.82;;
20073;SDS011;10197;54.282;10.078;2022-10-16T00:12:15;14.45;;;11.65;;
20073;SDS011;10197;54.282;10.078;2022-10-16T00:14:41;19.45;;;13.93;;
20073;SDS011;10197;54.282;10.078;2022-10-16T00:17:09;13.20;;;10.35;;
20073;SDS011;10197;54.282;10.078;2022-10-16T00:19:36;17.75;;;14.45;;
20073;SDS011;10197;54.282;10.078;2022-10-16T00:22:02;18.98;;;12.20;;
20073;SDS011;10197;54.282;10.078;2022-10-16T00:24:30;17.40;;;13.18;;
20073;SDS011;10197;54.282;10.078;2022-10-16T00:26:57;17.75;;;14.38;;
20073;SDS011;10197;54.282;10.078;2022-10-16T00:29:24;14.68;;;13.07;;
20073;SDS011;10197;54.282;10.078;2022-10-16T00:31:52;15.38;;;12.88;;
20073;SDS011;10197;54.282;10.078;2022-10-16T00:34:20;14.27;;;10.20;;
20073;SDS011;10197;54.282;10.078;2022-10-16T00:36:47;15.52;;;11.23;;
20073;SDS011;10197;54.282;10.078;2022-10-16T00:39:13;17.70;;;12.68;;
20073;SDS011;10197;54.282;10.078;2022-10-16T00:41:41;18.00;;;12.75;;
20073;SDS011;10197;54.282;10.078;2022-10-16T00:47:11;17.10;;;11.32;;
20073;SDS011;10197;54.282;10.078;2022-10-16T00:49:39;14.07;;;10.70;;
20073;SDS011;10197;54.282;10.078;2022-10-16T00:52:06;15.18;;;10.65;;
20073;SDS011;10197;54.282;10.078;2022-10-16T00:54:33;18.73;;;12.00;;
20073;SDS011;10197;54.282;10.078;2022-10-16T00:57:03;16.60;;;11.07;;
20073;SDS011;10197;54.282;10.078;2022-10-16T00:59:32;14.18;;;10.80;;
20073;SDS011;10197;54.282;10.078;2022-10-16T01:02:01;19.92;;;10.95;;
20073;SDS011;10197;54.282;10.078;2022-10-16T01:04:29;13.63;;;11.57;;
20073;SDS011;10197;54.282;10.078;2022-10-16T01:07:00;18.52;;;10.48;;
20073;SDS011;10197;54.282;10.078;2022-10-16T01:09:31;16.98;;;9.95;;
20073;SDS011;10197;54.282;10.078;2022-10-16T01:12:05;15.15;;;8.70;;
20073;SDS011;10197;54.282;10.078;2022-10-16T01:14:37;13.55;;;10.85;;
20073;SDS011;10197;54.282;10.078;2022-10-16T01:17:08;15.68;;;11.23;;
20073;SDS011;10197;54.282;10.078;2022-10-16T01:19:42;14.05;;;10.70;;
20073;SDS011;10197;54.282;10.078;2022-10-16T01:22:16;14.15;;;10.45;;
20073;SDS011;10197;54.282;10.078;2022-10-16T01:24:43;15.10;;;11.48;;
20073;SDS011;10197;54.282;10.078;2022-10-16T01:27:13;13.10;;;10.10;;
20073;SDS011;10197;54.282;10.078;2022-10-16T01:29:48;15.07;;;11.63;;
20073;SDS011;10197;54.282;10.078;2022-10-16T01:32:17;17.55;;;11.02;;
20073;SDS011;10197;54.282;10.078;2022-10-16T01:34:49;15.85;;;11.50;;
20073;SDS011;10197;54.282;10.078;2022-10-16T01:37:20;16.30;;;10.98;;
20073;SDS011;10197;54.282;10.078;2022-10-16T01:39:51;14.23;;;10.20;;
20073;SDS011;10197;54.282;10.078;2022-10-16T01:42:21;14.02;;;9.85;;
20073;SDS011;10197;54.282;10.078;2022-10-16T01:44:50;14.20;;;9.93;;
20073;SDS011;10197;54.282;10.078;2022-10-16T01:47:17;15.25;;;10.23;;
20073;SDS011;10197;54.282;10.078;2022-10-16T01:49:48;14.07;;;10.18;;
20073;SDS011;10197;54.282;10.078;2022-10-16T01:52:16;15.77;;;10.05;;
20073;SDS011;10197;54.282;10.078;2022-10-16T01:54:46;15.30;;;10.75;;
20073;SDS011;10197;54.282;10.078;2022-10-16T01:57:14;14.20;;;10.43;;
20073;SDS011;10197;54.282;10.078;2022-10-16T01:59:47;14.98;;;9.35;;
20073;SDS011;10197;54.282;10.078;2022-10-16T02:02:17;17.40;;;10.23;;
20073;SDS011;10197;54.282;10.078;2022-10-16T02:04:45;12.43;;;10.20;;
20073;SDS011;10197;54.282;10.078;2022-10-16T02:07:13;12.90;;;9.57;;
20073;SDS011;10197;54.282;10.078;2022-10-16T02:09:40;13.50;;;9.70;;
20073;SDS011;10197;54.282;10.078;2022-10-16T02:12:09;13.90;;;9.77;;
20073;SDS011;10197;54.282;10.078;2022-10-16T02:14:40;14.13;;;9.57;;
20073;SDS011;10197;54.282;10.078;2022-10-16T02:17:12;16.88;;;10.45;;
20073;SDS011;10197;54.282;10.078;2022-10-16T02:19:39;11.43;;;9.20;;
20073;SDS011;10197;54.282;10.078;2022-10-16T02:22:06;14.00;;;9.60;;
20073;SDS011;10197;54.282;10.078;2022-10-16T02:24:37;13.77;;;10.23;;
20073;SDS011;10197;54.282;10.078;2022-10-16T02:27:07;12.55;;;8.65;;
20073;SDS011;10197;54.282;10.078;2022-10-16T02:29:38;12.00;;;8.75;;
20073;SDS011;10197;54.282;10.078;2022-10-16T02:32:11;13.02;;;9.48;;
20073;SDS011;10197;54.282;10.078;2022-10-16T02:34:39;11.75;;;8.07;;
20073;SDS011;10197;54.282;10.078;2022-10-16T02:37:07;11.55;;;8.25;;
20073;SDS011;10197;54.282;10.078;2022-10-16T02:39:35;14.73;;;9.65;;
20073;SDS011;10197;54.282;10.078;2022-10-16T02:42:03;15.88;;;9.75;;
20073;SDS011;10197;54.282;10.078;2022-10-16T02:44:30;18.15;;;10.18;;
20073;SDS011;10197;54.282;10.078;2022-10-16T02:46:57;13.18;;;9.85;;
20073;SDS011;10197;54.282;10.078;2022-10-16T02:49:25;11.77;;;9.40;;
20073;SDS011;10197;54.282;10.078;2022-10-16T02:51:52;18.38;;;9.90;;
20073;SDS011;10197;54.282;10.078;2022-10-16T02:54:18;12.85;;;8.80;;
20073;SDS011;10197;54.282;10.078;2022-10-16T02:56:45;13.50;;;8.68;;
20073;SDS011;10197;54.282;10.078;2022-10-16T02:59:12;14.77;;;9.13;;
20073;SDS011;10197;54.282;10.078;2022-10-16T03:01:39;14.82;;;8.77;;
20073;SDS011;10197;54.282;10.078;2022-10-16T03:04:06;11.85;;;7.90;;
20073;SDS011;10197;54.282;10.078;2022-10-16T03:06:34;13.63;;;8.70;;
20073;SDS011;10197;54.282;10.078;2022-10-16T03:09:01;9.82;;;7.55;;
20073;SDS011;10197;54.282;10.078;2022-10-16T03:11:29;11.80;;;8.52;;
20073;SDS011;10197;54.282;10.078;2022-10-16T03:13:55;13.02;;;7.35;;
20073;SDS011;10197;54.282;10.078;2022-10-16T03:16:22;10.70;;;7.40;;
20073;SDS011;10197;54.282;10.078;2022-10-16T03:18:49;13.25;;;8.13;;
20073;SDS011;10197;54.282;10.078;2022-10-16T03:21:16;14.07;;;7.68;;
20073;SDS011;10197;54.282;10.078;2022-10-16T03:23:44;12.93;;;7.13;;
20073;SDS011;10197;54.282;10.078;2022-10-16T03:26:11;9.85;;;7.18;;
20073;SDS011;10197;54.282;10.078;2022-10-16T03:28:38;9.82;;;6.60;;
20073;SDS011;10197;54.282;10.078;2022-10-16T03:31:05;13.20;;;7.32;;
20073;SDS011;10197;54.282;10.078;2022-10-16T03:33:33;13.93;;;5.97;;
20073;SDS011;10197;54.282;10.078;2022-10-16T03:36:00;9.63;;;5.90;;
20073;SDS011;10197;54.282;10.078;2022-10-16T03:38:27;6.78;;;5.75;;
20073;SDS011;10197;54.282;10.078;2022-10-16T03:40:55;11.00;;;6.40;;
20073;SDS011;10197;54.282;10.078;2022-10-16T03:43:22;8.13;;;5.35;;
20073;SDS011;10197;54.282;10.078;2022-10-16T03:45:49;9.55;;;4.95;;
20073;SDS011;10197;54.282;10.078;2022-10-16T03:48:16;6.40;;;4.78;;
20073;SDS011;10197;54.282;10.078;2022-10-16T03:50:43;10.38;;;5.30;;
20073;SDS011;10197;54.282;10.078;2022-10-16T03:53:11;9.02;;;4.55;;
20073;SDS011;10197;54.282;10.078;2022-10-16T03:55:38;9.43;;;5.07;;
20073;SDS011;10197;54.282;10.078;2022-10-16T03:58:06;8.40;;;4.55;;
20073;SDS011;10197;54.282;10.078;2022-10-16T04:00:35;7.38;;;4.43;;
20073;SDS011;10197;54.282;10.078;2022-10-16T04:03:02;6.45;;;4.15;;
20073;SDS011;10197;54.282;10.078;2022-10-16T04:05:31;8.20;;;4.15;;
20073;SDS011;10197;54.282;10.078;2022-10-16T04:07:57;5.60;;;3.55;;
20073;SDS011;10197;54.282;10.078;2022-10-16T04:10:24;9.40;;;4.10;;
20073;SDS011;10197;54.282;10.078;2022-10-16T04:12:51;6.82;;;3.42;;
20073;SDS011;10197;54.282;10.078;2022-10-16T04:15:21;8.23;;;4.03;;
20073;SDS011;10197;54.282;10.078;2022-10-16T04:17:47;6.07;;;3.83;;
20073;SDS011;10197;54.282;10.078;2022-10-16T04:20:15;9.00;;;4.07;;
20073;SDS011;10197;54.282;10.078;2022-10-16T04:22:42;15.65;;;3.97;;
20073;SDS011;10197;54.282;10.078;2022-10-16T04:25:10;7.53;;;4.05;;
20073;SDS011;10197;54.282;10.078;2022-10-16T04:27:38;7.30;;;3.72;;
20073;SDS011;10197;54.282;10.078;2022-10-16T04:30:08;8.18;;;3.53;;
20073;SDS011;10197;54.282;10.078;2022-10-16T04:32:37;9.07;;;3.60;;
20073;SDS011;10197;54.282;10.078;2022-10-16T04:35:04;11.18;;;4.10;;
20073;SDS011;10197;54.282;10.078;2022-10-16T04:37:31;7.88;;;3.50;;
20073;SDS011;10197;54.282;10.078;2022-10-16T04:39:58;7.47;;;3.63;;
20073;SDS011;10197;54.282;10.078;2022-10-16T04:42:26;9.30;;;3.90;;
20073;SDS011;10197;54.282;10.078;2022-10-16T04:44:52;4.68;;;3.13;;
20073;SDS011;10197;54.282;10.078;2022-10-16T04:47:20;5.28;;;3.17;;
20073;SDS011;10197;54.282;10.078;2022-10-16T04:49:48;9.10;;;3.35;;
20073;SDS011;10197;54.282;10.078;2022-10-16T04:52:15;5.78;;;3.45;;
20073;SDS011;10197;54.282;10.078;2022-10-16T04:54:42;7.05;;;3.22;;
20073;SDS011;10197;54.282;10.078;2022-10-16T04:57:10;8.55;;;3.40;;
20073;SDS011;10197;54.282;10.078;2022-10-16T04:59:37;8.85;;;3.45;;
20073;SDS011;10197;54.282;10.078;2022-10-16T05:02:03;6.28;;;2.83;;
20073;SDS011;10197;54.282;10.078;2022-10-16T05:04:31;8.40;;;3.60;;
20073;SDS011;10197;54.282;10.078;2022-10-16T05:06:59;6.78;;;3.33;;
20073;SDS011;10197;54.282;10.078;2022-10-16T05:09:28;5.07;;;3.00;;
20073;SDS011;10197;54.282;10.078;2022-10-16T05:11:55;12.20;;;3.50;;
20073;SDS011;10197;54.282;10.078;2022-10-16T05:14:22;7.95;;;3.40;;
20073;SDS011;10197;54.282;10.078;2022-10-16T05:16:49;8.20;;;3.20;;
20073;SDS011;10197;54.282;10.078;2022-10-16T05:19:17;4.30;;;3.22;;
20073;SDS011;10197;54.282;10.078;2022-10-16T05:21:43;7.10;;;3.40;;
20073;SDS011;10197;54.282;10.078;2022-10-16T05:24:12;8.07;;;2.85;;
20073;SDS011;10197;54.282;10.078;2022-10-16T05:26:39;5.60;;;2.90;;
20073;SDS011;10197;54.282;10.078;2022-10-16T05:29:06;5.88;;;3.08;;
20073;SDS011;10197;54.282;10.078;2022-10-16T05:31:33;6.50;;;3.13;;
20073;SDS011;10197;54.282;10.078;2022-10-16T05:34:01;12.43;;;3.63;;
20073;SDS011;10197;54.282;10.078;2022-10-16T05:36:28;9.60;;;2.83;;
20073;SDS011;10197;54.282;10.078;2022-10-16T05:38:54;7.47;;;4.20;;
20073;SDS011;10197;54.282;10.078;2022-10-16T05:41:23;7.90;;;3.33;;
20073;SDS011;10197;54.282;10.078;2022-10-16T05:43:51;5.97;;;3.15;;
20073;SDS011;10197;54.282;10.078;2022-10-16T05:46:18;4.32;;;2.33;;
20073;SDS011;10197;54.282;10.078;2022-10-16T05:48:45;6.10;;;2.38;;
20073;SDS011;10197;54.282;10.078;2022-10-16T05:51:12;5.40;;;2.70;;
20073;SDS011;10197;54.282;10.078;2022-10-16T05:53:40;6.95;;;3.00;;
20073;SDS011;10197;54.282;10.078;2022-10-16T05:56:09;6.20;;;2.97;;
20073;SDS011;10197;54.282;10.078;2022-10-16T05:58:38;5.78;;;2.85;;
20073;SDS011;10197;54.282;10.078;2022-10-16T06:01:07;7.35;;;2.92;;
20073;SDS011;10197;54.282;10.078;2022-10-16T06:03:36;3.88;;;2.55;;
20073;SDS011;10197;54.282;10.078;2022-10-16T06:06:07;11.50;;;3.10;;
20073;SDS011;10197;54.282;10.078;2022-10-16T06:08:35;4.55;;;2.90;;
20073;SDS011;10197;54.282;10.078;2022-10-16T06:11:02;6.30;;;3.13;;
20073;SDS011;10197;54.282;10.078;2022-10-16T06:13:29;10.50;;;3.90;;
20073;SDS011;10197;54.282;10.078;2022-10-16T06:15:58;4.30;;;2.70;;
20073;SDS011;10197;54.282;10.078;2022-10-16T06:18:25;6.80;;;2.70;;
20073;SDS011;10197;54.282;10.078;2022-10-16T06:20:52;5.03;;;2.67;;
20073;SDS011;10197;54.282;10.078;2022-10-16T06:23:19;8.93;;;2.65;;
20073;SDS011;10197;54.282;10.078;2022-10-16T06:25:46;5.32;;;2.28;;
20073;SDS011;10197;54.282;10.078;2022-10-16T06:28:13;5.65;;;2.63;;
20073;SDS011;10197;54.282;10.078;2022-10-16T06:30:41;3.05;;;2.33;;
20073;SDS011;10197;54.282;10.078;2022-10-16T06:33:11;3.38;;;2.60;;
20073;SDS011;10197;54.282;10.078;2022-10-16T06:35:38;5.68;;;2.78;;
20073;SDS011;10197;54.282;10.078;2022-10-16T06:38:05;4.53;;;2.67;;
20073;SDS011;10197;54.282;10.078;2022-10-16T06:40:31;6.18;;;2.38;;
20073;SDS011;10197;54.282;10.078;2022-10-16T06:42:58;5.65;;;2.40;;
20073;SDS011;10197;54.282;10.078;2022-10-16T06:45:25;6.93;;;2.47;;
20073;SDS011;10197;54.282;10.078;2022-10-16T06:47:52;8.48;;;3.63;;
20073;SDS011;10197;54.282;10.078;2022-10-16T06:50:20;7.80;;;2.70;;
20073;SDS011;10197;54.282;10.078;2022-10-16T06:52:47;4.30;;;2.28;;
20073;SDS011;10197;54.282;10.078;2022-10-16T06:55:14;4.10;;;2.28;;
20073;SDS011;10197;54.282;10.078;2022-10-16T06:57:42;5.22;;;2.17;;
20073;SDS011;10197;54.282;10.078;2022-10-16T07:00:09;3.67;;;2.63;;
20073;SDS011;10197;54.282;10.078;2022-10-16T07:02:37;4.60;;;2.70;;
20073;SDS011;10197;54.282;10.078;2022-10-16T07:05:04;5.57;;;2.55;;
20073;SDS011;10197;54.282;10.078;2022-10-16T07:07:32;7.50;;;2.90;;
20073;SDS011;10197;54.282;10.078;2022-10-16T07:09:59;5.57;;;2.20;;
20073;SDS011;10197;54.282;10.078;2022-10-16T07:12:26;3.22;;;2.58;;
20073;SDS011;10197;54.282;10.078;2022-10-16T07:14:53;4.78;;;2.75;;
20073;SDS011;10197;54.282;10.078;2022-10-16T07:17:20;3.95;;;2.55;;
20073;SDS011;10197;54.282;10.078;2022-10-16T07:19:47;7.72;;;2.80;;
20073;SDS011;10197;54.282;10.078;2022-10-16T07:22:14;8.90;;;2.60;;
20073;SDS011;10197;54.282;10.078;2022-10-16T07:24:42;8.52;;;3.05;;
20073;SDS011;10197;54.282;10.078;2022-10-16T07:27:09;6.35;;;3.03;;
20073;SDS011;10197;54.282;10.078;2022-10-16T07:29:39;6.38;;;3.00;;
20073;SDS011;10197;54.282;10.078;2022-10-16T07:32:06;9.13;;;3.13;;
20073;SDS011;10197;54.282;10.078;2022-10-16T07:34:33;5.78;;;2.67;;
20073;SDS011;10197;54.282;10.078;2022-10-16T07:36:59;6.65;;;4.18;;
20073;SDS011;10197;54.282;10.078;2022-10-16T07:39:29;6.90;;;3.30;;
20073;SDS011;10197;54.282;10.078;2022-10-16T07:41:57;4.28;;;2.85;;
20073;SDS011;10197;54.282;10.078;2022-10-16T07:44:24;6.45;;;3.00;;
20073;SDS011;10197;54.282;10.078;2022-10-16T07:46:51;4.88;;;3.35;;
20073;SDS011;10197;54.282;10.078;2022-10-16T07:49:18;8.48;;;3.38;;
20073;SDS011;10197;54.282;10.078;2022-10-16T07:51:44;6.40;;;3.58;;
20073;SDS011;10197;54.282;10.078;2022-10-16T07:54:11;6.38;;;3.67;;
20073;SDS011;10197;54.282;10.078;2022-10-16T07:56:39;8.90;;;6.25;;
20073;SDS011;10197;54.282;10.078;2022-10-16T07:59:07;4.53;;;4.00;;
20073;SDS011;10197;54.282;10.078;2022-10-16T08:01:34;5.20;;;3.40;;
20073;SDS011;10197;54.282;10.078;2022-10-16T08:04:00;5.70;;;3.20;;
20073;SDS011;10197;54.282;10.078;2022-10-16T08:06:27;4.38;;;3.08;;
20073;SDS011;10197;54.282;10.078;2022-10-16T08:08:54;8.23;;;3.60;;
20073;SDS011;10197;54.282;10.078;2022-10-16T08:11:22;6.30;;;3.55;;
20073;SDS011;10197;54.282;10.078;2022-10-16T08:13:49;5.93;;;3.85;;
20073;SDS011;10197;54.282;10.078;2022-10-16T08:16:17;8.57;;;4.00;;
20073;SDS011;10197;54.282;10.078;2022-10-16T08:18:44;6.20;;;4.15;;
20073;SDS011;10197;54.282;10.078;2022-10-16T08:21:12;8.30;;;4.80;;
20073;SDS011;10197;54.282;10.078;2022-10-16T08:23:40;6.80;;;4.18;;
20073;SDS011;10197;54.282;10.078;2022-10-16T08:26:07;7.22;;;4.60;;
20073;SDS011;10197;54.282;10.078;2022-10-16T08:28:35;9.05;;;5.53;;
20073;SDS011;10197;54.282;10.078;2022-10-16T08:31:06;6.18;;;3.97;;
20073;SDS011;10197;54.282;10.078;2022-10-16T08:33:35;7.13;;;4.50;;
20073;SDS011;10197;54.282;10.078;2022-10-16T08:36:02;7.60;;;4.88;;
20073;SDS011;10197;54.282;10.078;2022-10-16T08:38:30;7.22;;;4.60;;
20073;SDS011;10197;54.282;10.078;2022-10-16T08:41:01;8.45;;;5.88;;
20073;SDS011;10197;54.282;10.078;2022-10-16T08:43:46;6.88;;;5.25;;
20073;SDS011;10197;54.282;10.078;2022-10-16T08:46:27;9.35;;;5.25;;
20073;SDS011;10197;54.282;10.078;2022-10-16T08:49:05;12.77;;;5.65;;
20073;SDS011;10197;54.282;10.078;2022-10-16T08:51:36;9.65;;;5.25;;
20073;SDS011;10197;54.282;10.078;2022-10-16T08:54:04;9.93;;;5.18;;
20073;SDS011;10197;54.282;10.078;2022-10-16T08:56:32;9.35;;;5.82;;
20073;SDS011;10197;54.282;10.078;2022-10-16T08:58:59;6.70;;;5.18;;
20073;SDS011;10197;54.282;10.078;2022-10-16T09:01:32;7.75;;;4.85;;
20073;SDS011;10197;54.282;10.078;2022-10-16T09:04:20;10.15;;;5.22;;
20073;SDS011;10197;54.282;10.078;2022-10-16T09:06:59;10.55;;;4.47;;
20073;SDS011;10197;54.282;10.078;2022-10-16T09:09:32;8.18;;;4.53;;
20073;SDS011;10197;54.282;10.078;2022-10-16T09:12:11;6.90;;;4.07;;
20073;SDS011;10197;54.282;10.078;2022-10-16T09:14:44;8.20;;;4.75;;
20073;SDS011;10197;54.282;10.078;2022-10-16T09:17:22;11.50;;;4.72;;
20073;SDS011;10197;54.282;10.078;2022-10-16T09:20:00;7.10;;;4.20;;
20073;SDS011;10197;54.282;10.078;2022-10-16T09:22:34;10.73;;;4.30;;
20073;SDS011;10197;54.282;10.078;2022-10-16T09:25:04;9.95;;;4.70;;
20073;SDS011;10197;54.282;10.078;2022-10-16T09:27:38;11.38;;;4.22;;
20073;SDS011;10197;54.282;10.078;2022-10-16T09:30:10;9.65;;;3.88;;
20073;SDS011;10197;54.282;10.078;2022-10-16T09:32:39;11.07;;;3.90;;
20073;SDS011;10197;54.282;10.078;2022-10-16T09:35:10;9.25;;;3.80;;
20073;SDS011;10197;54.282;10.078;2022-10-16T09:37:39;15.75;;;3.97;;
20073;SDS011;10197;54.282;10.078;2022-10-16T09:40:07;7.53;;;3.60;;
20073;SDS011;10197;54.282;10.078;2022-10-16T09:42:38;9.13;;;3.50;;
20073;SDS011;10197;54.282;10.078;2022-10-16T09:45:06;9.38;;;3.65;;
20073;SDS011;10197;54.282;10.078;2022-10-16T09:47:45;7.60;;;3.78;;
20073;SDS011;10197;54.282;10.078;2022-10-16T09:50:20;10.75;;;3.67;;
20073;SDS011;10197;54.282;10.078;2022-10-16T09:52:49;8.35;;;3.58;;
20073;SDS011;10197;54.282;10.078;2022-10-16T09:55:17;9.35;;;3.38;;
20073;SDS011;10197;54.282;10.078;2022-10-16T09:57:50;10.23;;;4.10;;
20073;SDS011;10197;54.282;10.078;2022-10-16T10:00:18;8.70;;;3.90;;
20073;SDS011;10197;54.282;10.078;2022-10-16T10:02:45;8.45;;;3.50;;
20073;SDS011;10197;54.282;10.078;2022-10-16T10:05:21;9.25;;;3.50;;
20073;SDS011;10197;54.282;10.078;2022-10-16T10:07:53;10.10;;;3.45;;
20073;SDS011;10197;54.282;10.078;2022-10-16T10:10:21;6.68;;;3.08;;
20073;SDS011;10197;54.282;10.078;2022-10-16T10:12:49;7.10;;;3.28;;
20073;SDS011;10197;54.282;10.078;2022-10-16T10:15:16;6.72;;;3.33;;
20073;SDS011;10197;54.282;10.078;2022-10-16T10:17:47;12.40;;;3.30;;
20073;SDS011;10197;54.282;10.078;2022-10-16T10:20:26;10.43;;;3.20;;
20073;SDS011;10197;54.282;10.078;2022-10-16T10:22:54;10.65;;;3.53;;
20073;SDS011;10197;54.282;10.078;2022-10-16T10:25:24;7.72;;;3.22;;
20073;SDS011;10197;54.282;10.078;2022-10-16T10:28:07;7.68;;;3.08;;
20073;SDS011;10197;54.282;10.078;2022-10-16T10:30:54;9.20;;;3.80;;
20073;SDS011;10197;54.282;10.078;2022-10-16T10:33:25;9.52;;;3.80;;
20073;SDS011;10197;54.282;10.078;2022-10-16T10:35:59;8.07;;;4.13;;
20073;SDS011;10197;54.282;10.078;2022-10-16T10:38:35;10.18;;;3.05;;
20073;SDS011;10197;54.282;10.078;2022-10-16T10:41:11;4.68;;;3.00;;
20073;SDS011;10197;54.282;10.078;2022-10-16T10:43:49;11.80;;;3.42;;
20073;SDS011;10197;54.282;10.078;2022-10-16T10:46:24;10.30;;;3.25;;
20073;SDS011;10197;54.282;10.078;2022-10-16T10:49:01;7.95;;;2.78;;
20073;SDS011;10197;54.282;10.078;2022-10-16T10:51:38;11.48;;;3.20;;
20073;SDS011;10197;54.282;10.078;2022-10-16T10:54:11;7.85;;;3.58;;
20073;SDS011;10197;54.282;10.078;2022-10-16T10:56:43;6.22;;;3.03;;
20073;SDS011;10197;54.282;10.078;2022-10-16T10:59:19;6.25;;;2.78;;
20073;SDS011;10197;54.282;10.078;2022-10-16T11:02:09;9.18;;;3.60;;
20073;SDS011;10197;54.282;10.078;2022-10-16T11:07:30;8.73;;;4.18;;
20073;SDS011;10197;54.282;10.078;2022-10-16T11:10:01;8.25;;;2.90;;
20073;SDS011;10197;54.282;10.078;2022-10-16T11:12:30;5.07;;;2.63;;
20073;SDS011;10197;54.282;10.078;2022-10-16T11:15:00;12.75;;;3.83;;
20073;SDS011;10197;54.282;10.078;2022-10-16T11:17:30;9.15;;;2.72;;
20073;SDS011;10197;54.282;10.078;2022-10-16T11:20:00;7.60;;;2.15;;
20073;SDS011;10197;54.282;10.078;2022-10-16T11:22:32;6.00;;;2.22;;
20073;SDS011;10197;54.282;10.078;2022-10-16T11:25:02;11.45;;;2.70;;
20073;SDS011;10197;54.282;10.078;2022-10-16T11:27:35;5.85;;;2.00;;
20073;SDS011;10197;54.282;10.078;2022-10-16T11:30:04;7.45;;;2.53;;
20073;SDS011;10197;54.282;10.078;2022-10-16T11:32:39;15.13;;;2.80;;
20073;SDS011;10197;54.282;10.078;2022-10-16T11:35:17;6.55;;;2.17;;
20073;SDS011;10197;54.282;10.078;2022-10-16T11:37:49;6.18;;;2.47;;
20073;SDS011;10197;54.282;10.078;2022-10-16T11:40:20;9.25;;;2.20;;
20073;SDS011;10197;54.282;10.078;2022-10-16T11:42:51;6.22;;;1.92;;
20073;SDS011;10197;54.282;10.078;2022-10-16T11:45:24;10.05;;;2.10;;
20073;SDS011;10197;54.282;10.078;2022-10-16T11:47:58;8.95;;;2.20;;
20073;SDS011;10197;54.282;10.078;2022-10-16T11:50:29;7.80;;;2.15;;
20073;SDS011;10197;54.282;10.078;2022-10-16T11:53:03;6.30;;;2.22;;
20073;SDS011;10197;54.282;10.078;2022-10-16T11:55:35;10.20;;;2.20;;
20073;SDS011;10197;54.282;10.078;2022-10-16T11:58:03;6.60;;;1.90;;
20073;SDS011;10197;54.282;10.078;2022-10-16T12:00:34;5.45;;;1.63;;
20073;SDS011;10197;54.282;10.078;2022-10-16T12:03:05;8.90;;;2.78;;
20073;SDS011;10197;54.282;10.078;2022-10-16T12:05:46;9.82;;;2.50;;
20073;SDS011;10197;54.282;10.078;2022-10-16T12:08:22;7.07;;;1.98;;
20073;SDS011;10197;54.282;10.078;2022-10-16T12:10:49;7.10;;;2.28;;
20073;SDS011;10197;54.282;10.078;2022-10-16T12:13:29;10.45;;;2.13;;
20073;SDS011;10197;54.282;10.078;2022-10-16T12:16:16;8.27;;;2.10;;
20073;SDS011;10197;54.282;10.078;2022-10-16T12:18:48;10.45;;;2.50;;
20073;SDS011;10197;54.282;10.078;2022-10-16T12:21:15;11.02;;;2.33;;
20073;SDS011;10197;54.282;10.078;2022-10-16T12:23:49;8.48;;;3.00;;
20073;SDS011;10197;54.282;10.078;2022-10-16T12:26:23;8.35;;;2.38;;
20073;SDS011;10197;54.282;10.078;2022-10-16T12:28:51;6.63;;;2.33;;
20073;SDS011;10197;54.282;10.078;2022-10-16T12:31:18;9.75;;;1.98;;
20073;SDS011;10197;54.282;10.078;2022-10-16T12:33:52;6.45;;;2.13;;
20073;SDS011;10197;54.282;10.078;2022-10-16T12:36:27;10.65;;;2.20;;
20073;SDS011;10197;54.282;10.078;2022-10-16T12:38:57;10.18;;;2.35;;
20073;SDS011;10197;54.282;10.078;2022-10-16T12:41:24;10.25;;;2.60;;
20073;SDS011;10197;54.282;10.078;2022-10-16T12:43:52;13.00;;;2.17;;
20073;SDS011;10197;54.282;10.078;2022-10-16T12:46:26;9.75;;;3.00;;
20073;SDS011;10197;54.282;10.078;2022-10-16T12:49:06;10.65;;;2.20;;
20073;SDS011;10197;54.282;10.078;2022-10-16T12:51:44;7.60;;;2.85;;
20073;SDS011;10197;54.282;10.078;2022-10-16T12:54:13;8.73;;;2.75;;
20073;SDS011;10197;54.282;10.078;2022-10-16T12:56:44;9.38;;;2.20;;
20073;SDS011;10197;54.282;10.078;2022-10-16T12:59:21;15.77;;;2.70;;
20073;SDS011;10197;54.282;10.078;2022-10-16T13:01:58;10.10;;;2.95;;
20073;SDS011;10197;54.282;10.078;2022-10-16T13:04:40;10.13;;;2.65;;
20073;SDS011;10197;54.282;10.078;2022-10-16T13:07:19;5.65;;;2.60;;
20073;SDS011;10197;54.282;10.078;2022-10-16T13:10:00;14.30;;;2.83;;
20073;SDS011;10197;54.282;10.078;2022-10-16T13:12:40;6.07;;;2.15;;
20073;SDS011;10197;54.282;10.078;2022-10-16T13:15:26;9.30;;;2.25;;
20073;SDS011;10197;54.282;10.078;2022-10-16T13:18:02;7.95;;;2.47;;
20073;SDS011;10197;54.282;10.078;2022-10-16T13:20:33;6.18;;;2.20;;
20073;SDS011;10197;54.282;10.078;2022-10-16T13:23:08;8.18;;;2.28;;
20073;SDS011;10197;54.282;10.078;2022-10-16T13:25:45;10.70;;;2.65;;
20073;SDS011;10197;54.282;10.078;2022-10-16T13:28:19;9.43;;;2.03;;
20073;SDS011;10197;54.282;10.078;2022-10-16T13:30:51;10.43;;;2.28;;
20073;SDS011;10197;54.282;10.078;2022-10-16T13:33:19;9.75;;;3.05;;
20073;SDS011;10197;54.282;10.078;2022-10-16T13:35:49;7.50;;;1.95;;
20073;SDS011;10197;54.282;10.078;2022-10-16T13:38:18;10.20;;;2.58;;
20073;SDS011;10197;54.282;10.078;2022-10-16T13:40:54;8.93;;;2.33;;
20073;SDS011;10197;54.282;10.078;2022-10-16T13:43:24;7.40;;;1.98;;
20073;SDS011;10197;54.282;10.078;2022-10-16T13:45:53;12.55;;;2.67;;
20073;SDS011;10197;54.282;10.078;2022-10-16T13:48:24;13.20;;;2.60;;
20073;SDS011;10197;54.282;10.078;2022-10-16T13:51:04;9.93;;;2.42;;
20073;SDS011;10197;54.282;10.078;2022-10-16T13:53:33;13.63;;;2.95;;
20073;SDS011;10197;54.282;10.078;2022-10-16T13:56:06;9.40;;;2.50;;
20073;SDS011;10197;54.282;10.078;2022-10-16T13:58:35;9.43;;;2.40;;
20073;SDS011;10197;54.282;10.078;2022-10-16T14:01:03;8.93;;;2.30;;
20073;SDS011;10197;54.282;10.078;2022-10-16T14:03:31;12.80;;;1.98;;
20073;SDS011;10197;54.282;10.078;2022-10-16T14:06:00;6.28;;;1.80;;
20073;SDS011;10197;54.282;10.078;2022-10-16T14:08:28;10.15;;;2.20;;
20073;SDS011;10197;54.282;10.078;2022-10-16T14:10:56;6.93;;;1.80;;
20073;SDS011;10197;54.282;10.078;2022-10-16T14:13:28;8.13;;;2.55;;
20073;SDS011;10197;54.282;10.078;2022-10-16T14:15:56;9.18;;;2.20;;
20073;SDS011;10197;54.282;10.078;2022-10-16T14:18:25;6.13;;;2.00;;
20073;SDS011;10197;54.282;10.078;2022-10-16T14:20:53;10.25;;;2.20;;
20073;SDS011;10197;54.282;10.078;2022-10-16T14:23:21;7.90;;;1.83;;
20073;SDS011;10197;54.282;10.078;2022-10-16T14:25:49;9.73;;;2.20;;
20073;SDS011;10197;54.282;10.078;2022-10-16T14:28:17;9.80;;;2.50;;
20073;SDS011;10197;54.282;10.078;2022-10-16T14:30:50;8.70;;;2.55;;
20073;SDS011;10197;54.282;10.078;2022-10-16T14:33:20;3.70;;;1.63;;
20073;SDS011;10197;54.282;10.078;2022-10-16T14:35:58;8.80;;;1.75;;
20073;SDS011;10197;54.282;10.078;2022-10-16T14:38:27;9.65;;;2.03;;
20073;SDS011;10197;54.282;10.078;2022-10-16T14:40:54;8.80;;;2.30;;
20073;SDS011;10197;54.282;10.078;2022-10-16T14:43:25;10.93;;;2.10;;
20073;SDS011;10197;54.282;10.078;2022-10-16T14:45:58;8.85;;;2.40;;
20073;SDS011;10197;54.282;10.078;2022-10-16T14:48:25;5.78;;;2.13;;
20073;SDS011;10197;54.282;10.078;2022-10-16T14:50:52;9.48;;;2.03;;